Gil Vicente — CSKG — position and weather

sailwx.info

Track history (hours):
 
Tides and Currents Weather Stations Pressure Air Temp Water Temp Dewpoint Dewpoint Depression Visibility Wind Speed Wind Dir Waves Ship Positions

Gil Vicente

Last reported at 2015-Aug-02 10:21 UTC. Time now 2015-Aug-02 20:27 UTC.
Position N 38°39' W 009°05'.

Length 49 m.

Type: Passenger vessel. MMSI: 263701390.

Date/timePositionNaut miles runAvg speedWind from/ knotsBaromVisibWave heightAir tempDewpointWater temp
2015-Aug-02 10:21N 38°39' W 009°05'2 2.0
2015-Aug-02 09:33N 38°40' W 009°07'0 0.0
2015-Aug-02 08:33N 38°40' W 009°07'0 0.1
2015-Aug-02 07:33N 38°40' W 009°07'0 0.4
2015-Aug-02 06:33N 38°40' W 009°06'1 1.3
2015-Aug-02 05:34N 38°41' W 009°08'2 1.6
2015-Aug-02 04:33N 38°42' W 009°08'4 1.3
2015-Aug-02 01:22N 38°39' W 009°05'0 0.3
2015-Aug-02 00:34N 38°39' W 009°05'0 0.1
2015-Aug-01 23:33N 38°39' W 009°05'0 0.3
2015-Aug-01 22:33N 38°39' W 009°05'1 1.0
2015-Aug-01 21:33N 38°40' W 009°06'0 0.2
2015-Aug-01 20:34N 38°40' W 009°07'0 0.1
2015-Aug-01 19:33N 38°40' W 009°07'1 0.9
2015-Aug-01 18:33N 38°40' W 009°08'0 0.4
2015-Aug-01 17:34N 38°41' W 009°08'0 0.2
2015-Aug-01 16:34N 38°41' W 009°08'0 0.3
2015-Aug-01 15:34N 38°41' W 009°08'0 0.0
2015-Aug-01 14:33N 38°41' W 009°08'3 2.7
2015-Aug-01 13:33N 38°39' W 009°05'0 0.0
2015-Aug-01 12:33N 38°39' W 009°05'1 1.2
2015-Aug-01 11:33N 38°40' W 009°06'0 0.1
2015-Aug-01 10:33N 38°40' W 009°06'0 0.2
2015-Aug-01 09:33N 38°40' W 009°07'0 0.0
2015-Aug-01 08:33N 38°40' W 009°07'0 0.3
2015-Aug-01 07:33N 38°40' W 009°06'0 0.2
2015-Aug-01 06:34N 38°40' W 009°06'2 1.6
2015-Aug-01 05:34N 38°41' W 009°08'1 0.8
2015-Aug-01 04:34N 38°42' W 009°08'4 3.6
2015-Aug-01 03:33N 38°39' W 009°05'0 0.0
2015-Aug-01 02:33N 38°39' W 009°05'0 0.0
2015-Aug-01 01:33N 38°39' W 009°05'0 0.4
2015-Aug-01 00:34N 38°39' W 009°05'0 0.2
2015-Jul-31 23:33N 38°39' W 009°05'0 0.0
2015-Jul-31 22:33N 38°39' W 009°05'1 1.5
2015-Jul-31 21:33N 38°40' W 009°07'0 0.3
2015-Jul-31 20:33N 38°40' W 009°06'1 1.4
2015-Jul-31 19:34N 38°39' W 009°05'0 0.0
2015-Jul-31 18:33N 38°39' W 009°05'1 0.9
2015-Jul-31 17:33N 38°39' W 009°06'3 3.2
2015-Jul-31 16:33N 38°42' W 009°08'4 3.8
2015-Jul-31 15:33N 38°39' W 009°05'0 0.0
2015-Jul-31 12:32N 38°39' W 009°05'1 1.4
2015-Jul-31 11:33N 38°40' W 009°06'0 0.3
2015-Jul-31 10:33N 38°40' W 009°06'1 1.0
2015-Jul-31 09:31N 38°39' W 009°05'0 0.0
2015-Jul-31 08:33N 38°39' W 009°05'0 0.0
2015-Jul-31 07:33N 38°39' W 009°05'1 0.7
2015-Jul-31 06:34N 38°39' W 009°06'1 0.7
2015-Jul-31 05:33N 38°39' W 009°05'0 0.0
2015-Jul-30 20:16N 38°39' W 009°05'3 4.8
2015-Jul-30 19:33N 38°42' W 009°08'3 2.5
2015-Jul-30 18:34N 38°39' W 009°06'3 2.9
2015-Jul-30 17:34N 38°42' W 009°08'0 0.4
2015-Jul-30 16:34N 38°42' W 009°08'1 0.7
2015-Jul-30 15:34N 38°42' W 009°08'4 3.6
2015-Jul-30 14:34N 38°39' W 009°05'2 1.8
2015-Jul-30 13:34N 38°40' W 009°07'0 0.3
2015-Jul-30 12:34N 38°40' W 009°06'1 1.5
2015-Jul-30 11:33N 38°39' W 009°05'0 0.0
2015-Jul-30 10:33N 38°39' W 009°05'3 2.8
2015-Jul-30 09:33N 38°41' W 009°08'3 2.9
2015-Jul-30 08:34N 38°39' W 009°05'1 0.7
2015-Jul-30 07:34N 38°39' W 009°06'3 3.1
2015-Jul-30 06:33N 38°42' W 009°08'1 0.6
2015-Jul-30 05:33N 38°42' W 009°08'0 0.0
2015-Jul-30 04:34N 38°42' W 009°08'4 1.3
2015-Jul-30 01:23N 38°39' W 009°05'0 0.5
2015-Jul-30 00:34N 38°39' W 009°05'0 0.2
2015-Jul-29 23:33N 38°39' W 009°05'0 0.1
2015-Jul-29 22:33N 38°39' W 009°05'1 1.4
2015-Jul-29 21:33N 38°40' W 009°07'0 0.0
2015-Jul-29 20:33N 38°40' W 009°07'2 1.7
2015-Jul-29 19:33N 38°39' W 009°05'0 0.0
2015-Jul-29 18:34N 38°39' W 009°05'1 0.8
2015-Jul-29 17:33N 38°39' W 009°06'3 3.4
2015-Jul-29 16:32N 38°42' W 009°08'4 3.9
2015-Jul-29 15:33N 38°39' W 009°05'0 0.0
2015-Jul-29 12:29N 38°39' W 009°05'1 1.6
2015-Jul-29 11:33N 38°40' W 009°06'0 0.4
2015-Jul-29 10:33N 38°40' W 009°06'1 1.1
2015-Jul-29 09:33N 38°39' W 009°05'0 0.0
2015-Jul-29 08:33N 38°39' W 009°05'0 0.0
2015-Jul-29 07:34N 38°39' W 009°05'1 0.8
2015-Jul-29 06:33N 38°39' W 009°06'1 0.7
2015-Jul-29 05:33N 38°39' W 009°05'0 0.0
2015-Jul-28 20:33N 38°39' W 009°05'3 3.1
2015-Jul-28 19:33N 38°41' W 009°08'2 2.4
2015-Jul-28 18:34N 38°39' W 009°06'3 3.4
2015-Jul-28 17:33N 38°42' W 009°08'0 0.0
2015-Jul-28 16:33N 38°42' W 009°08'1 1.2
2015-Jul-28 15:34N 38°41' W 009°08'3 3.2
2015-Jul-28 14:34N 38°39' W 009°05'1 1.3
2015-Jul-28 13:33N 38°40' W 009°06'0 0.5
2015-Jul-28 12:33N 38°40' W 009°07'2 0.7
2015-Jul-28 10:16N 38°39' W 009°05'3 4.1
2015-Jul-28 09:33N 38°41' W 009°08'3 3.0
2015-Jul-28 08:33N 38°39' W 009°05'1 0.7
2015-Jul-28 07:34N 38°39' W 009°06'3 3.2
2015-Jul-28 06:34N 38°42' W 009°08'1 0.6
2015-Jul-28 05:33N 38°42' W 009°08'0 0.0
2015-Jul-28 04:34N 38°42' W 009°08'4 1.3
2015-Jul-28 01:24N 38°39' W 009°05'0 0.5
2015-Jul-28 00:33N 38°39' W 009°05'0 0.0
2015-Jul-27 23:33N 38°39' W 009°05'0 0.0
2015-Jul-27 22:34N 38°39' W 009°05'1 1.4
2015-Jul-27 21:33N 38°40' W 009°07'0 0.3
2015-Jul-27 20:34N 38°40' W 009°06'1 1.4
2015-Jul-27 19:34N 38°39' W 009°05'0 0.0
2015-Jul-27 18:33N 38°39' W 009°05'1 0.9
2015-Jul-27 17:33N 38°39' W 009°06'3 3.1
2015-Jul-27 16:34N 38°42' W 009°08'4 3.7
2015-Jul-27 15:33N 38°39' W 009°05'3 0.4
2015-Jul-27 09:34N 38°41' W 009°08'3 2.7
2015-Jul-27 08:33N 38°39' W 009°05'0 0.5
2015-Jul-27 07:34N 38°39' W 009°05'4 3.6
2015-Jul-27 06:33N 38°42' W 009°08'0 0.5
2015-Jul-27 05:33N 38°42' W 009°08'0 0.0
2015-Jul-27 04:34N 38°42' W 009°08'4 1.3
2015-Jul-27 01:21N 38°39' W 009°05'0 0.1
2015-Jul-27 00:33N 38°39' W 009°05'0 0.4
2015-Jul-26 23:33N 38°39' W 009°05'0 0.1
2015-Jul-26 22:34N 38°39' W 009°05'1 1.2
2015-Jul-26 21:33N 38°40' W 009°07'0 0.1
2015-Jul-26 20:33N 38°40' W 009°07'0 0.1
2015-Jul-26 19:33N 38°40' W 009°06'1 1.0
2015-Jul-26 18:34N 38°40' W 009°08'1 0.5
2015-Jul-26 17:33N 38°41' W 009°08'0 0.0
2015-Jul-26 16:33N 38°41' W 009°08'0 0.1
2015-Jul-26 15:34N 38°41' W 009°08'0 0.1
2015-Jul-26 14:33N 38°41' W 009°08'3 2.8
2015-Jul-26 13:33N 38°39' W 009°05'0 0.0
2015-Jul-26 12:34N 38°39' W 009°05'2 1.6
2015-Jul-26 11:34N 38°40' W 009°07'0 0.2
2015-Jul-26 10:34N 38°40' W 009°06'2 0.1
2015-Jul-24 19:33N 38°42' W 009°08'1 0.7
2015-Jul-24 18:34N 38°42' W 009°08'4 4.1
2015-Jul-24 17:33N 38°39' W 009°05'0 0.0
2015-Jul-24 16:33N 38°39' W 009°05'4 3.6
2015-Jul-24 15:33N 38°42' W 009°08'1 1.0
2015-Jul-24 14:34N 38°41' W 009°08'0 0.2
2015-Jul-24 13:34N 38°41' W 009°08'0 0.3
2015-Jul-24 12:34N 38°41' W 009°08'0 0.0
2015-Jul-24 11:34N 38°41' W 009°08'0 0.3
2015-Jul-24 10:33N 38°41' W 009°08'3 3.0
2015-Jul-24 09:33N 38°39' W 009°05'4 4.2
2015-Jul-24 08:33N 38°42' W 009°08'0 0.0
2015-Jul-24 07:33N 38°42' W 009°08'3 2.6
2015-Jul-24 06:34N 38°40' W 009°07'2 1.8
2015-Jul-24 05:33N 38°39' W 009°05'4 0.4
2015-Jul-23 19:34N 38°42' W 009°08'0 0.1
2015-Jul-23 18:33N 38°42' W 009°08'4 4.0
2015-Jul-23 17:33N 38°39' W 009°05'  
Track history (hours):
 
Tides and Currents Weather Stations Pressure Air Temp Water Temp Dewpoint Dewpoint Depression Visibility Wind Speed Wind Dir Waves Ship Positions

Gil Vicente

Last reported at 2015-Aug-02 10:21 UTC. Time now 2015-Aug-02 20:27 UTC.
Position N 38°39' W 009°05'.

Length 49 m.

Type: Passenger vessel. MMSI: 263701390.

Date/timePositionNaut miles runAvg speedWind from/ knotsBaromVisibWave heightAir tempDewpointWater temp
2015-Aug-02 10:21N 38°39' W 009°05'2 2.0
2015-Aug-02 09:33N 38°40' W 009°07'0 0.0
2015-Aug-02 08:33N 38°40' W 009°07'0 0.1
2015-Aug-02 07:33N 38°40' W 009°07'0 0.4
2015-Aug-02 06:33N 38°40' W 009°06'1 1.3
2015-Aug-02 05:34N 38°41' W 009°08'2 1.6
2015-Aug-02 04:33N 38°42' W 009°08'4 1.3
2015-Aug-02 01:22N 38°39' W 009°05'0 0.3
2015-Aug-02 00:34N 38°39' W 009°05'0 0.1
2015-Aug-01 23:33N 38°39' W 009°05'0 0.3
2015-Aug-01 22:33N 38°39' W 009°05'1 1.0
2015-Aug-01 21:33N 38°40' W 009°06'0 0.2
2015-Aug-01 20:34N 38°40' W 009°07'0 0.1
2015-Aug-01 19:33N 38°40' W 009°07'1 0.9
2015-Aug-01 18:33N 38°40' W 009°08'0 0.4
2015-Aug-01 17:34N 38°41' W 009°08'0 0.2
2015-Aug-01 16:34N 38°41' W 009°08'0 0.3
2015-Aug-01 15:34N 38°41' W 009°08'0 0.0
2015-Aug-01 14:33N 38°41' W 009°08'3 2.7
2015-Aug-01 13:33N 38°39' W 009°05'0 0.0
2015-Aug-01 12:33N 38°39' W 009°05'1 1.2
2015-Aug-01 11:33N 38°40' W 009°06'0 0.1
2015-Aug-01 10:33N 38°40' W 009°06'0 0.2
2015-Aug-01 09:33N 38°40' W 009°07'0 0.0
2015-Aug-01 08:33N 38°40' W 009°07'0 0.3
2015-Aug-01 07:33N 38°40' W 009°06'0 0.2
2015-Aug-01 06:34N 38°40' W 009°06'2 1.6
2015-Aug-01 05:34N 38°41' W 009°08'1 0.8
2015-Aug-01 04:34N 38°42' W 009°08'4 3.6
2015-Aug-01 03:33N 38°39' W 009°05'0 0.0
2015-Aug-01 02:33N 38°39' W 009°05'0 0.0
2015-Aug-01 01:33N 38°39' W 009°05'0 0.4
2015-Aug-01 00:34N 38°39' W 009°05'0 0.2
2015-Jul-31 23:33N 38°39' W 009°05'0 0.0
2015-Jul-31 22:33N 38°39' W 009°05'1 1.5
2015-Jul-31 21:33N 38°40' W 009°07'0 0.3
2015-Jul-31 20:33N 38°40' W 009°06'1 1.4
2015-Jul-31 19:34N 38°39' W 009°05'0 0.0
2015-Jul-31 18:33N 38°39' W 009°05'1 0.9
2015-Jul-31 17:33N 38°39' W 009°06'3 3.2
2015-Jul-31 16:33N 38°42' W 009°08'4 3.8
2015-Jul-31 15:33N 38°39' W 009°05'0 0.0
2015-Jul-31 12:32N 38°39' W 009°05'1 1.4
2015-Jul-31 11:33N 38°40' W 009°06'0 0.3
2015-Jul-31 10:33N 38°40' W 009°06'1 1.0
2015-Jul-31 09:31N 38°39' W 009°05'0 0.0
2015-Jul-31 08:33N 38°39' W 009°05'0 0.0
2015-Jul-31 07:33N 38°39' W 009°05'1 0.7
2015-Jul-31 06:34N 38°39' W 009°06'1 0.7
2015-Jul-31 05:33N 38°39' W 009°05'0 0.0
2015-Jul-30 20:16N 38°39' W 009°05'3 4.8
2015-Jul-30 19:33N 38°42' W 009°08'3 2.5
2015-Jul-30 18:34N 38°39' W 009°06'3 2.9
2015-Jul-30 17:34N 38°42' W 009°08'0 0.4
2015-Jul-30 16:34N 38°42' W 009°08'1 0.7
2015-Jul-30 15:34N 38°42' W 009°08'4 3.6
2015-Jul-30 14:34N 38°39' W 009°05'2 1.8
2015-Jul-30 13:34N 38°40' W 009°07'0 0.3
2015-Jul-30 12:34N 38°40' W 009°06'1 1.5
2015-Jul-30 11:33N 38°39' W 009°05'0 0.0
2015-Jul-30 10:33N 38°39' W 009°05'3 2.8
2015-Jul-30 09:33N 38°41' W 009°08'3 2.9
2015-Jul-30 08:34N 38°39' W 009°05'1 0.7
2015-Jul-30 07:34N 38°39' W 009°06'3 3.1
2015-Jul-30 06:33N 38°42' W 009°08'1 0.6
2015-Jul-30 05:33N 38°42' W 009°08'0 0.0
2015-Jul-30 04:34N 38°42' W 009°08'4 1.3
2015-Jul-30 01:23N 38°39' W 009°05'0 0.5
2015-Jul-30 00:34N 38°39' W 009°05'0 0.2
2015-Jul-29 23:33N 38°39' W 009°05'0 0.1
2015-Jul-29 22:33N 38°39' W 009°05'1 1.4
2015-Jul-29 21:33N 38°40' W 009°07'0 0.0
2015-Jul-29 20:33N 38°40' W 009°07'2 1.7
2015-Jul-29 19:33N 38°39' W 009°05'0 0.0
2015-Jul-29 18:34N 38°39' W 009°05'1 0.8
2015-Jul-29 17:33N 38°39' W 009°06'3 3.4
2015-Jul-29 16:32N 38°42' W 009°08'4 3.9
2015-Jul-29 15:33N 38°39' W 009°05'0 0.0
2015-Jul-29 12:29N 38°39' W 009°05'1 1.6
2015-Jul-29 11:33N 38°40' W 009°06'0 0.4
2015-Jul-29 10:33N 38°40' W 009°06'1 1.1
2015-Jul-29 09:33N 38°39' W 009°05'0 0.0
2015-Jul-29 08:33N 38°39' W 009°05'0 0.0
2015-Jul-29 07:34N 38°39' W 009°05'1 0.8
2015-Jul-29 06:33N 38°39' W 009°06'1 0.7
2015-Jul-29 05:33N 38°39' W 009°05'0 0.0
2015-Jul-28 20:33N 38°39' W 009°05'3 3.1
2015-Jul-28 19:33N 38°41' W 009°08'2 2.4
2015-Jul-28 18:34N 38°39' W 009°06'3 3.4
2015-Jul-28 17:33N 38°42' W 009°08'0 0.0
2015-Jul-28 16:33N 38°42' W 009°08'1 1.2
2015-Jul-28 15:34N 38°41' W 009°08'3 3.2
2015-Jul-28 14:34N 38°39' W 009°05'1 1.3
2015-Jul-28 13:33N 38°40' W 009°06'0 0.5
2015-Jul-28 12:33N 38°40' W 009°07'2 0.7
2015-Jul-28 10:16N 38°39' W 009°05'3 4.1
2015-Jul-28 09:33N 38°41' W 009°08'3 3.0
2015-Jul-28 08:33N 38°39' W 009°05'1 0.7
2015-Jul-28 07:34N 38°39' W 009°06'3 3.2
2015-Jul-28 06:34N 38°42' W 009°08'1 0.6
2015-Jul-28 05:33N 38°42' W 009°08'0 0.0
2015-Jul-28 04:34N 38°42' W 009°08'4 1.3
2015-Jul-28 01:24N 38°39' W 009°05'0 0.5
2015-Jul-28 00:33N 38°39' W 009°05'0 0.0
2015-Jul-27 23:33N 38°39' W 009°05'0 0.0
2015-Jul-27 22:34N 38°39' W 009°05'1 1.4
2015-Jul-27 21:33N 38°40' W 009°07'0 0.3
2015-Jul-27 20:34N 38°40' W 009°06'1 1.4
2015-Jul-27 19:34N 38°39' W 009°05'0 0.0
2015-Jul-27 18:33N 38°39' W 009°05'1 0.9
2015-Jul-27 17:33N 38°39' W 009°06'3 3.1
2015-Jul-27 16:34N 38°42' W 009°08'4 3.7
2015-Jul-27 15:33N 38°39' W 009°05'3 0.4
2015-Jul-27 09:34N 38°41' W 009°08'3 2.7
2015-Jul-27 08:33N 38°39' W 009°05'0 0.5
2015-Jul-27 07:34N 38°39' W 009°05'4 3.6
2015-Jul-27 06:33N 38°42' W 009°08'0 0.5
2015-Jul-27 05:33N 38°42' W 009°08'0 0.0
2015-Jul-27 04:34N 38°42' W 009°08'4 1.3
2015-Jul-27 01:21N 38°39' W 009°05'0 0.1
2015-Jul-27 00:33N 38°39' W 009°05'0 0.4
2015-Jul-26 23:33N 38°39' W 009°05'0 0.1
2015-Jul-26 22:34N 38°39' W 009°05'1 1.2
2015-Jul-26 21:33N 38°40' W 009°07'0 0.1
2015-Jul-26 20:33N 38°40' W 009°07'0 0.1
2015-Jul-26 19:33N 38°40' W 009°06'1 1.0
2015-Jul-26 18:34N 38°40' W 009°08'1 0.5
2015-Jul-26 17:33N 38°41' W 009°08'0 0.0
2015-Jul-26 16:33N 38°41' W 009°08'0 0.1
2015-Jul-26 15:34N 38°41' W 009°08'0 0.1
2015-Jul-26 14:33N 38°41' W 009°08'3 2.8
2015-Jul-26 13:33N 38°39' W 009°05'0 0.0
2015-Jul-26 12:34N 38°39' W 009°05'2 1.6
2015-Jul-26 11:34N 38°40' W 009°07'0 0.2
2015-Jul-26 10:34N 38°40' W 009°06'2 0.1
2015-Jul-24 19:33N 38°42' W 009°08'1 0.7
2015-Jul-24 18:34N 38°42' W 009°08'4 4.1
2015-Jul-24 17:33N 38°39' W 009°05'0 0.0
2015-Jul-24 16:33N 38°39' W 009°05'4 3.6
2015-Jul-24 15:33N 38°42' W 009°08'1 1.0
2015-Jul-24 14:34N 38°41' W 009°08'0 0.2
2015-Jul-24 13:34N 38°41' W 009°08'0 0.3
2015-Jul-24 12:34N 38°41' W 009°08'0 0.0
2015-Jul-24 11:34N 38°41' W 009°08'0 0.3
2015-Jul-24 10:33N 38°41' W 009°08'3 3.0
2015-Jul-24 09:33N 38°39' W 009°05'4 4.2
2015-Jul-24 08:33N 38°42' W 009°08'0 0.0
2015-Jul-24 07:33N 38°42' W 009°08'3 2.6
2015-Jul-24 06:34N 38°40' W 009°07'2 1.8
2015-Jul-24 05:33N 38°39' W 009°05'4 0.4
2015-Jul-23 19:34N 38°42' W 009°08'0 0.1
2015-Jul-23 18:33N 38°42' W 009°08'4 4.0
2015-Jul-23 17:33N 38°39' W 009°05'  

Dump ship's entire track history